Time;durP1;ratioP1;P1;durP2;ratioP2;P2;SDS_P1;SDS_P2;PMS_P1;PMS_P2;Temp;Humidity;BMP_temperature;BMP_pressure;BME280_temperature;BME280_humidity;BME280_pressure;Samples;Min_cycle;Max_cycle;Signal;HPM_P1;HPM_P2
2021/12/05 00:16:50;;;;;;;46.70;25.90;;;;;;;-2.10;72.24;99369.88;87087;1311;22584;-76
2021/12/05 00:18:02;;;;;;;40.90;21.60;;;;;;;-2.13;72.68;99382.00;87061;1312;22578;-67
2021/12/05 00:20:36;;;;;;;40.80;20.90;;;;;;;-2.12;72.62;99383.38;87043;1312;22889;-67
2021/12/05 00:22:45;;;;;;;39.40;21.20;;;;;;;-2.14;72.50;99381.67;87063;1312;22871;-67
2021/12/05 00:24:57;;;;;;;42.00;23.10;;;;;;;-2.15;72.53;99383.38;87085;1312;22581;-67
2021/12/05 00:27:15;;;;;;;41.20;21.10;;;;;;;-2.16;72.60;99382.88;87064;1312;24391;-67
2021/12/05 00:29:27;;;;;;;38.30;22.10;;;;;;;-2.18;72.53;99386.98;87085;1312;22587;-67
2021/12/05 00:31:53;;;;;;;40.60;22.40;;;;;;;-2.20;72.56;99398.25;86327;1312;1003284;-67
2021/12/05 00:34:19;;;;;;;43.20;21.20;;;;;;;-2.22;72.56;99401.16;87091;1311;22566;-67
2021/12/05 00:39:29;;;;;;;43.70;23.20;;;;;;;-2.18;72.53;99407.14;87067;1312;22570;-67
2021/12/05 00:41:58;;;;;;;38.00;20.70;;;;;;;-2.17;72.70;99402.86;87105;1312;24366;-76
2021/12/05 00:56:45;;;;;;;39.20;23.10;;;;;;;-2.26;72.66;99410.05;87059;1312;26597;-68
2021/12/05 00:59:16;;;;;;;39.20;21.20;;;;;;;-2.31;72.77;99413.14;87093;1312;22787;-68
2021/12/05 01:07:03;;;;;;;42.60;21.30;;;;;;;-2.49;73.10;99412.83;86920;1312;22702;-75
2021/12/05 01:14:08;;;;;;;38.40;20.30;;;;;;;-2.51;73.38;99425.80;86364;1311;1003929;-70
2021/12/05 01:16:17;;;;;;;42.10;22.90;;;;;;;-2.46;73.54;99426.83;87102;1311;25338;-76
2021/12/05 01:18:25;;;;;;;43.50;22.80;;;;;;;-2.43;73.58;99427.49;87100;1312;22555;-74
2021/12/05 01:20:34;;;;;;;46.20;21.80;;;;;;;-2.41;73.76;99431.94;87078;1312;25139;-76
2021/12/05 01:22:45;;;;;;;37.20;21.70;;;;;;;-2.43;73.54;99427.84;87094;1312;25343;-75
2021/12/05 01:25:00;;;;;;;39.50;20.30;;;;;;;-2.43;73.63;99424.08;87076;1311;22748;-74
2021/12/05 01:27:13;;;;;;;43.30;22.30;;;;;;;-2.45;73.51;99424.59;87042;1312;23923;-75
2021/12/05 01:29:30;;;;;;;46.70;22.70;;;;;;;-2.47;74.11;99426.65;87059;1312;25330;-75
2021/12/05 01:31:48;;;;;;;36.90;20.40;;;;;;;-2.48;73.90;99431.59;87070;1312;26620;-74
2021/12/05 01:34:00;;;;;;;39.40;21.10;;;;;;;-2.47;73.76;99431.26;87044;1312;22562;-74
2021/12/05 01:36:14;;;;;;;40.90;20.90;;;;;;;-2.46;73.88;99427.52;87110;1311;22581;-73
2021/12/05 01:38:31;;;;;;;37.80;19.80;;;;;;;-2.43;74.01;99425.44;87081;1312;22562;-74
2021/12/05 01:53:12;;;;;;;43.20;21.20;;;;;;;-2.20;74.15;99405.95;86857;1316;25534;-75
2021/12/05 02:00:57;;;;;;;40.70;19.80;;;;;;;-2.08;73.91;99405.91;85842;1317;1003665;-68
2021/12/05 02:08:27;;;;;;;34.50;18.90;;;;;;;-1.88;73.92;99396.96;87077;1312;22540;-75
2021/12/05 02:16:00;;;;;;;38.80;20.80;;;;;;;-1.72;73.47;99402.05;86724;1316;23872;-74
2021/12/05 02:30:38;;;;;;;32.20;17.70;;;;;;;-1.61;73.16;99402.68;86726;1316;22593;-75
2021/12/05 02:35:25;;;;;;;36.70;19.40;;;;;;;-1.48;73.08;99404.67;86388;1322;26535;-75
2021/12/05 02:37:50;;;;;;;32.80;19.20;;;;;;;-1.41;73.08;99405.48;86757;1316;22961;-75
2021/12/05 02:40:19;;;;;;;36.90;19.50;;;;;;;-1.35;72.90;99405.29;86733;1316;23872;-75
2021/12/05 02:42:32;;;;;;;41.60;20.20;;;;;;;-1.29;72.92;99405.41;87080;1311;22631;-75
2021/12/05 02:44:38;;;;;;;36.00;19.40;;;;;;;-1.26;72.82;99405.77;87071;1312;22553;-75
2021/12/05 02:46:47;;;;;;;34.60;19.90;;;;;;;-1.24;72.73;99409.16;87103;1312;22650;-68
2021/12/05 02:48:55;;;;;;;37.20;20.10;;;;;;;-1.21;72.56;99408.29;87076;1312;22809;-68
2021/12/05 02:51:03;;;;;;;34.10;20.10;;;;;;;-1.18;72.51;99403.98;87069;1311;23745;-76
2021/12/05 02:53:18;;;;;;;32.10;18.90;;;;;;;-1.17;72.37;99400.23;87108;1312;22558;-75
2021/12/05 02:55:31;;;;;;;38.40;20.20;;;;;;;-1.18;72.38;99394.07;87089;1312;22586;-74
2021/12/05 02:57:52;;;;;;;35.10;20.50;;;;;;;-1.18;72.47;99393.38;87089;1312;22557;-68
2021/12/05 03:00:08;;;;;;;35.10;19.40;;;;;;;-1.18;72.15;99388.59;87110;1312;22875;-67
2021/12/05 03:02:18;;;;;;;34.70;19.90;;;;;;;-1.20;72.07;99389.46;87097;1312;22808;-75
2021/12/05 03:04:28;;;;;;;29.60;18.30;;;;;;;-1.19;72.15;99387.56;87076;1312;22691;-74
2021/12/05 03:06:33;;;;;;;;;;;;;;;-1.16;72.11;99388.41;87119;1312;22624;-68
2021/12/05 03:08:40;;;;;;;34.80;18.90;;;;;;;-1.14;72.23;99385.48;87096;1312;23830;-68
2021/12/05 03:10:52;;;;;;;37.70;19.80;;;;;;;-1.09;72.10;99383.23;87078;1311;22554;-68
2021/12/05 03:12:59;;;;;;;36.00;19.50;;;;;;;-1.05;71.91;99386.80;85653;1311;1003786;-76
2021/12/05 03:15:12;;;;;;;33.90;20.60;;;;;;;-1.02;71.79;99383.19;87096;1312;22699;-76
2021/12/05 03:17:18;;;;;;;36.70;20.00;;;;;;;-0.98;71.93;99375.47;87122;1311;25353;-76
2021/12/05 03:19:25;;;;;;;39.40;19.70;;;;;;;-0.96;72.10;99373.38;87095;1311;26623;-75
2021/12/05 03:21:34;;;;;;;42.30;20.50;;;;;;;-0.97;71.77;99373.05;87130;1312;23763;-68
2021/12/05 03:23:45;;;;;;;39.10;22.20;;;;;;;-1.00;71.57;99373.92;87100;1312;22587;-69
2021/12/05 03:25:55;;;;;;;38.60;21.80;;;;;;;-1.02;71.69;99370.52;87076;1312;23954;-73
2021/12/05 03:28:01;;;;;;;37.90;20.00;;;;;;;-1.04;71.58;99372.58;86392;1311;1004692;-75
2021/12/05 03:30:09;;;;;;;43.70;21.30;;;;;;;-1.06;71.55;99375.67;87097;1312;25455;-75
2021/12/05 03:32:15;;;;;;;41.20;21.50;;;;;;;-1.07;71.68;99376.54;87145;1312;24095;-68
2021/12/05 03:34:25;;;;;;;36.10;18.80;;;;;;;-1.08;71.51;99374.15;87109;1312;22568;-68
2021/12/05 03:36:31;;;;;;;42.10;20.20;;;;;;;-1.11;71.37;99372.46;87082;1312;22572;-67
2021/12/05 03:38:38;;;;;;;36.50;19.20;;;;;;;-1.13;71.39;99374.87;87062;1312;22562;-68
2021/12/05 03:40:48;;;;;;;28.80;18.10;;;;;;;-1.12;71.58;99375.04;87094;1311;22572;-68
2021/12/05 03:42:54;;;;;;;38.00;21.70;;;;;;;-1.13;71.58;99374.54;87102;1312;22582;-68
2021/12/05 03:45:01;;;;;;;37.40;19.30;;;;;;;-1.13;71.46;99381.03;87090;1312;22594;-68
2021/12/05 03:47:10;;;;;;;36.60;19.70;;;;;;;-1.14;71.37;99385.98;87110;1312;22746;-68
2021/12/05 03:49:20;;;;;;;35.00;19.90;;;;;;;-1.14;71.43;99388.23;87103;1311;22552;-67
2021/12/05 03:51:30;;;;;;;34.10;18.50;;;;;;;-1.19;71.30;99387.23;87121;1312;23859;-75
2021/12/05 03:53:37;;;;;;;34.50;20.00;;;;;;;-1.23;71.45;99382.46;86670;1311;1003104;-75
2021/12/05 03:55:48;;;;;;;32.60;20.40;;;;;;;-1.26;71.44;99379.08;87073;1312;22668;-75
2021/12/05 03:57:54;;;;;;;31.60;18.00;;;;;;;-1.29;71.62;99380.45;87074;1312;22555;-68
2021/12/05 04:00:01;;;;;;;33.40;19.50;;;;;;;-1.37;71.51;99383.57;87128;1312;25537;-68
2021/12/05 04:02:08;;;;;;;35.10;18.60;;;;;;;-1.46;71.66;99384.47;87075;1312;22740;-68
2021/12/05 04:04:17;;;;;;;34.70;18.80;;;;;;;-1.51;71.72;99378.86;87026;1313;22577;-68
2021/12/05 04:06:24;;;;;;;35.00;20.90;;;;;;;-1.56;71.77;99378.89;87093;1312;22575;-68
2021/12/05 04:08:31;;;;;;;35.60;20.20;;;;;;;-1.59;71.87;99377.88;87098;1312;22562;-68
2021/12/05 04:10:38;;;;;;;32.30;18.90;;;;;;;-1.61;71.92;99379.08;87065;1311;25350;-67
2021/12/05 04:12:44;;;;;;;30.70;19.10;;;;;;;-1.63;72.08;99381.48;86362;1312;1003120;-75
2021/12/05 04:14:54;;;;;;;36.00;20.00;;;;;;;-1.66;72.14;99385.09;87080;1311;22578;-75
2021/12/05 04:17:01;;;;;;;36.30;20.50;;;;;;;-1.69;72.05;99383.23;87138;1311;22740;-75
2021/12/05 04:19:10;;;;;;;37.50;20.60;;;;;;;-1.72;72.11;99384.27;87077;1312;22552;-74
2021/12/05 04:21:17;;;;;;;32.60;18.50;;;;;;;-1.77;72.25;99388.55;87073;1312;25943;-74
2021/12/05 04:23:26;;;;;;;42.10;22.00;;;;;;;-1.82;72.41;99386.70;87079;1312;25471;-75
2021/12/05 04:25:35;;;;;;;35.40;19.40;;;;;;;-1.87;72.43;99386.71;86189;1312;1213235;-74
2021/12/05 04:27:43;;;;;;;36.30;20.60;;;;;;;-1.92;72.49;99390.31;87097;1311;22580;-75
2021/12/05 04:29:49;;;;;;;34.40;20.20;;;;;;;-1.97;72.56;99397.00;87064;1312;22578;-74
2021/12/05 04:31:55;;;;;;;35.50;19.70;;;;;;;-2.02;72.58;99400.79;86377;1312;1003399;-68
2021/12/05 04:34:02;;;;;;;33.70;19.10;;;;;;;-2.08;72.70;99403.02;87087;1312;22562;-68
2021/12/05 04:36:09;;;;;;;31.10;18.10;;;;;;;-2.12;72.77;99412.26;87079;1312;22579;-68
2021/12/05 04:38:15;;;;;;;30.10;16.90;;;;;;;-2.13;72.78;99418.39;87152;1312;22775;-68
2021/12/05 04:40:25;;;;;;;35.60;18.80;;;;;;;-2.14;73.07;99422.67;87100;1311;25366;-69
2021/12/05 04:42:34;;;;;;;38.80;19.00;;;;;;;-2.14;73.15;99420.29;87080;1312;23307;-75
2021/12/05 04:44:44;;;;;;;33.20;18.20;;;;;;;-2.16;73.32;99420.64;87117;1312;23867;-75
2021/12/05 04:46:50;;;;;;;33.50;19.30;;;;;;;-2.16;73.31;99423.71;87064;1312;22605;-69
2021/12/05 04:49:00;;;;;;;32.30;19.90;;;;;;;-2.17;73.38;99426.80;87095;1312;22795;-69
2021/12/05 04:51:09;;;;;;;35.00;19.90;;;;;;;-2.17;73.31;99429.52;86374;1312;1003888;-69
2021/12/05 04:53:19;;;;;;;33.00;19.30;;;;;;;-2.21;73.45;99436.87;86348;1311;1003672;-68
2021/12/05 04:55:25;;;;;;;36.90;19.70;;;;;;;-2.23;73.75;99440.29;87085;1312;22678;-68
2021/12/05 04:57:34;;;;;;;36.50;20.50;;;;;;;-2.27;73.57;99439.10;87130;1312;22658;-68
2021/12/05 04:59:49;;;;;;;30.50;19.00;;;;;;;-2.32;73.65;99445.42;87088;1312;25443;-71
2021/12/05 05:01:57;;;;;;;34.20;20.10;;;;;;;-2.33;73.96;99449.01;87068;1312;23910;-74
2021/12/05 05:04:15;;;;;;;31.90;18.70;;;;;;;-2.30;73.69;99447.66;87091;1312;24262;-75
2021/12/05 05:06:21;;;;;;;31.00;17.80;;;;;;;-2.28;73.86;99442.50;87103;1311;25325;-77
2021/12/05 05:08:30;;;;;;;30.20;18.20;;;;;;;-2.26;73.99;99438.09;87084;1312;25997;-74
2021/12/05 05:10:37;;;;;;;29.90;18.50;;;;;;;-2.23;73.93;99429.86;87085;1312;22720;-73
2021/12/05 05:12:43;;;;;;;33.90;18.90;;;;;;;-2.20;74.02;99431.92;87048;1312;22578;-68
2021/12/05 05:14:50;;;;;;;31.50;18.10;;;;;;;-2.19;74.09;99440.45;87062;1311;22631;-68
2021/12/05 05:16:57;;;;;;;33.10;18.70;;;;;;;-2.18;74.15;99438.57;86365;1311;1003144;-75
2021/12/05 05:19:07;;;;;;;31.80;18.40;;;;;;;-2.19;73.89;99438.91;87094;1312;22891;-74
2021/12/05 05:21:17;;;;;;;;;;;;;;;-2.20;73.87;99437.73;87127;1312;22543;-74
2021/12/05 05:23:44;;;;;;;33.50;18.40;;;;;;;-2.25;74.06;99436.03;87092;1311;22627;-75
2021/12/05 05:39:03;;;;;;;34.60;20.00;;;;;;;-2.32;74.08;99437.23;86643;1318;22719;-68
2021/12/05 05:41:18;;;;;;;34.70;18.90;;;;;;;-2.21;74.37;99430.89;87020;1312;22574;-68
2021/12/05 05:43:37;;;;;;;36.00;18.60;;;;;;;-2.19;74.31;99423.54;87053;1312;22561;-68
2021/12/05 05:46:09;;;;;;;32.90;19.10;;;;;;;-2.18;74.22;99426.44;87111;1311;22700;-69
2021/12/05 05:48:31;;;;;;;34.60;19.30;;;;;;;-2.19;74.28;99431.91;87079;1312;25370;-69
2021/12/05 05:50:37;;;;;;;33.70;20.80;;;;;;;-2.21;74.36;99429.02;87084;1312;22580;-70
2021/12/05 05:52:43;;;;;;;36.40;20.60;;;;;;;-2.26;74.24;99432.27;87110;1312;23968;-69
2021/12/05 05:54:51;;;;;;;39.50;21.50;;;;;;;-2.29;74.14;99436.71;87072;1312;22592;-69
2021/12/05 05:57:04;;;;;;;35.10;19.50;;;;;;;-2.31;74.36;99432.95;87071;1311;22983;-68
2021/12/05 05:59:19;;;;;;;35.20;19.90;;;;;;;-2.32;74.12;99429.70;87084;1312;22646;-68
2021/12/05 06:01:44;;;;;;;35.70;19.30;;;;;;;-2.33;74.39;99421.34;87112;1312;22828;-76
2021/12/05 06:03:51;;;;;;;32.00;18.30;;;;;;;-2.31;74.51;99428.00;87078;1312;22826;-76
2021/12/05 06:06:02;;;;;;;36.60;21.10;;;;;;;-2.30;74.54;99431.09;87088;1312;26507;-67
2021/12/05 06:08:11;;;;;;;37.00;20.70;;;;;;;-2.26;74.72;99433.64;87081;1312;22817;-69
2021/12/05 06:10:22;;;;;;;46.60;22.10;;;;;;;-2.26;74.63;99430.73;87081;1312;22523;-70
2021/12/05 06:12:31;;;;;;;35.80;20.50;;;;;;;-2.27;74.49;99436.37;87087;1312;24022;-75
2021/12/05 06:14:38;;;;;;;35.70;19.70;;;;;;;-2.30;74.51;99439.10;87094;1312;22587;-76
2021/12/05 06:16:44;;;;;;;39.20;23.20;;;;;;;-2.31;74.54;99434.33;87101;1312;23711;-76
2021/12/05 06:18:51;;;;;;;38.30;21.20;;;;;;;-2.31;74.68;99433.83;87107;1312;22578;-75
2021/12/05 06:20:57;;;;;;;42.50;21.30;;;;;;;-2.33;74.61;99438.77;87108;1311;23844;-69
2021/12/05 06:23:04;;;;;;;36.50;21.30;;;;;;;-2.34;74.53;99440.48;87070;1312;26664;-68
2021/12/05 06:25:19;;;;;;;35.80;20.80;;;;;;;-2.34;74.74;99443.38;87089;1312;22702;-68
2021/12/05 06:27:25;;;;;;;34.50;21.90;;;;;;;-2.32;74.71;99443.36;87072;1312;22699;-76
2021/12/05 06:29:39;;;;;;;37.40;20.70;;;;;;;-2.30;74.88;99447.48;87065;1311;22577;-74
2021/12/05 06:32:18;;;;;;;37.70;22.30;;;;;;;-2.28;74.86;99450.71;87104;1312;22700;-67
2021/12/05 06:37:11;;;;;;;36.00;21.50;;;;;;;-2.26;74.81;99457.73;87084;1312;22578;-76
2021/12/05 06:39:25;;;;;;;38.10;21.50;;;;;;;-2.25;74.68;99460.80;87090;1312;22587;-76
2021/12/05 06:46:27;;;;;;;38.00;20.80;;;;;;;-2.28;74.61;99469.16;87108;1312;22752;-69
2021/12/05 06:48:37;;;;;;;39.00;21.50;;;;;;;-2.26;74.59;99472.25;87100;1311;22820;-69
2021/12/05 06:50:43;;;;;;;40.10;22.00;;;;;;;-2.24;74.54;99474.80;87085;1312;22546;-69
2021/12/05 06:52:53;;;;;;;36.90;22.40;;;;;;;-2.21;74.58;99472.40;87065;1311;23827;-68
2021/12/05 06:54:59;;;;;;;43.00;24.50;;;;;;;-2.18;74.74;99482.81;87102;1312;22620;-69
2021/12/05 06:57:07;;;;;;;40.70;24.30;;;;;;;-2.15;74.63;99485.55;87099;1311;22581;-70
2021/12/05 06:59:16;;;;;;;42.60;24.50;;;;;;;-2.14;74.52;99489.14;87075;1312;23805;-69
2021/12/05 07:01:22;;;;;;;34.50;20.20;;;;;;;-2.12;74.45;99484.17;87110;1311;22820;-67
2021/12/05 07:03:32;;;;;;;46.10;25.00;;;;;;;-2.13;74.46;99482.48;87082;1311;23854;-67
2021/12/05 07:05:45;;;;;;;41.10;24.70;;;;;;;-2.15;74.33;99487.27;87050;1312;22576;-67
2021/12/05 07:07:52;;;;;;;43.30;25.90;;;;;;;-2.16;74.47;99492.05;87089;1312;22562;-75
2021/12/05 07:09:58;;;;;;;40.30;24.60;;;;;;;-2.19;74.38;99497.00;87034;1312;22583;-74
2021/12/05 07:12:39;;;;;;;43.50;23.10;;;;;;;-2.21;74.44;99497.69;87090;1312;24471;-68
2021/12/05 07:14:49;;;;;;;46.00;24.10;;;;;;;-2.23;74.32;99496.83;87102;1312;22556;-68
2021/12/05 07:17:02;;;;;;;38.00;22.80;;;;;;;-2.22;74.39;99498.70;87130;1312;22552;-75
2021/12/05 07:19:28;;;;;;;39.50;22.20;;;;;;;-2.20;74.42;99498.55;87081;1312;22899;-75
2021/12/05 07:21:45;;;;;;;35.00;20.30;;;;;;;-2.15;74.43;99500.08;87075;1312;22748;-67
2021/12/05 07:23:58;;;;;;;41.80;22.20;;;;;;;-2.11;74.40;99502.98;87091;1312;23857;-68
2021/12/05 07:26:11;;;;;;;39.80;23.10;;;;;;;-2.07;74.56;99504.69;87084;1312;22567;-75
2021/12/05 07:40:30;;;;;;;45.70;24.70;;;;;;;-1.85;74.31;99505.85;87097;1312;22592;-68
2021/12/05 07:42:41;;;;;;;38.20;23.00;;;;;;;-1.80;74.13;99505.52;86408;1312;1003614;-68
2021/12/05 07:44:52;;;;;;;42.30;23.40;;;;;;;-1.76;74.08;99509.09;87087;1311;22565;-68
2021/12/05 07:47:01;;;;;;;41.20;23.00;;;;;;;-1.70;73.98;99504.45;87099;1312;22559;-69
2021/12/05 07:49:11;;;;;;;38.90;22.00;;;;;;;-1.65;73.85;99503.75;87061;1312;23083;-67
2021/12/05 07:51:26;;;;;;;41.10;23.10;;;;;;;-1.58;73.87;99502.71;86347;1312;1003106;-68
2021/12/05 07:53:39;;;;;;;47.20;25.60;;;;;;;-1.49;73.71;99500.80;87041;1311;25340;-68
2021/12/05 07:55:49;;;;;;;57.60;27.00;;;;;;;-1.45;73.49;99499.07;87074;1311;23766;-68
2021/12/05 07:58:10;;;;;;;47.30;25.60;;;;;;;-1.40;73.29;99502.83;87063;1312;23409;-68
2021/12/05 08:00:23;;;;;;;43.40;24.20;;;;;;;-1.37;73.29;99498.20;87068;1311;22549;-68
2021/12/05 08:14:43;;;;;;;46.30;25.00;;;;;;;-1.41;72.97;99508.83;86354;1312;1003606;-75
2021/12/05 08:16:53;;;;;;;38.00;21.60;;;;;;;-1.35;72.92;99509.98;87041;1312;22572;-70
2021/12/05 08:19:00;;;;;;;36.50;21.80;;;;;;;-1.30;72.79;99511.67;87073;1312;22560;-69
2021/12/05 08:21:10;;;;;;;36.60;21.60;;;;;;;-1.26;72.63;99516.64;87127;1312;24010;-74
2021/12/05 08:23:18;;;;;;;41.40;27.20;;;;;;;-1.23;72.52;99519.19;87070;1312;22569;-75
2021/12/05 08:25:26;;;;;;;42.00;26.50;;;;;;;-1.17;72.55;99518.82;87091;1312;22580;-75
2021/12/05 08:27:33;;;;;;;41.50;22.80;;;;;;;-1.12;72.46;99521.88;87102;1312;22688;-75
2021/12/05 08:29:46;;;;;;;46.20;25.00;;;;;;;-1.11;72.24;99524.62;87092;1312;22555;-76
2021/12/05 08:32:08;;;;;;;42.60;25.70;;;;;;;-1.10;72.28;99528.53;86387;1312;1003686;-69
2021/12/05 08:34:39;;;;;;;42.10;23.70;;;;;;;-1.09;72.28;99531.61;87071;1312;22568;-69
2021/12/05 08:41:58;;;;;;;45.40;26.50;;;;;;;-1.06;72.12;99525.45;87066;1312;25169;-76
2021/12/05 09:21:01;;;;;;;48.30;26.10;;;;;;;-0.76;71.28;99527.35;86914;1312;23771;-75
2021/12/05 09:25:46;;;;;;;45.80;24.40;;;;;;;-0.67;71.13;99530.89;87076;1312;23730;-77
2021/12/05 09:28:19;;;;;;;42.90;24.10;;;;;;;-0.63;71.33;99532.75;87074;1311;22553;-69
2021/12/05 09:30:46;;;;;;;39.50;24.70;;;;;;;-0.55;71.36;99533.89;87099;1312;24142;-69
2021/12/05 10:02:21;;;;;;;41.20;23.70;;;;;;;-0.19;70.44;99535.70;87119;1311;25461;-69
2021/12/05 10:06:54;;;;;;;38.60;21.20;;;;;;;-0.18;69.61;99537.22;87119;1312;23838;-76
2021/12/05 10:09:15;;;;;;;33.40;21.50;;;;;;;-0.16;69.83;99534.13;87085;1312;22625;-78
2021/12/05 10:11:35;;;;;;;;;;;;;;;-0.08;69.94;99531.49;87094;1312;22602;-68
2021/12/05 10:13:56;;;;;;;44.50;24.70;;;;;;;-0.05;69.60;99528.04;87039;1312;22545;-68
2021/12/05 10:16:15;;;;;;;40.60;22.40;;;;;;;0.00;69.57;99526.80;87050;1312;25401;-73
2021/12/05 10:19:20;;;;;;;40.40;23.80;;;;;;;0.04;69.39;99526.23;87099;1312;22578;-67
2021/12/05 10:26:43;;;;;;;51.60;27.90;;;;;;;0.07;69.05;99523.66;86965;1315;22736;-75
2021/12/05 10:34:19;;;;;;;39.10;23.40;;;;;;;0.05;69.32;99516.64;86975;1314;22787;-75
2021/12/05 10:36:31;;;;;;;43.70;25.90;;;;;;;0.07;69.58;99519.88;86249;1315;1003560;-75
2021/12/05 10:38:48;;;;;;;39.10;22.90;;;;;;;0.04;68.88;99521.27;86994;1315;22578;-76
2021/12/05 10:41:05;;;;;;;37.80;22.60;;;;;;;-0.01;69.11;99517.02;86978;1315;23365;-74
2021/12/05 10:43:17;;;;;;;40.90;24.00;;;;;;;-0.03;69.03;99517.91;86993;1315;23950;-75
2021/12/05 10:45:35;;;;;;;42.00;24.50;;;;;;;-0.06;69.39;99517.58;86993;1315;24324;-76
2021/12/05 10:48:01;;;;;;;39.80;22.80;;;;;;;-0.04;69.39;99517.57;86934;1315;22575;-76
2021/12/05 10:50:35;;;;;;;40.50;24.00;;;;;;;-0.01;69.47;99520.45;86923;1313;22580;-76
2021/12/05 10:52:48;;;;;;;38.60;22.90;;;;;;;0.06;69.40;99515.77;87067;1312;22876;-75
2021/12/05 10:55:00;;;;;;;46.00;25.30;;;;;;;0.11;69.48;99514.02;87062;1312;23811;-75
2021/12/05 10:57:18;;;;;;;46.10;26.20;;;;;;;0.13;69.31;99512.95;87108;1312;22588;-67
2021/12/05 10:59:32;;;;;;;43.30;26.20;;;;;;;0.14;69.25;99510.20;87033;1312;25461;-68
2021/12/05 11:01:44;;;;;;;43.80;25.20;;;;;;;0.13;69.51;99512.42;86382;1312;1003843;-68
2021/12/05 11:03:56;;;;;;;49.80;28.10;;;;;;;0.09;69.03;99504.08;86373;1312;1003067;-68
2021/12/05 11:06:20;;;;;;;54.40;29.00;;;;;;;0.05;69.61;99507.38;87077;1311;26115;-70
2021/12/05 11:08:41;;;;;;;52.50;29.50;;;;;;;0.04;69.32;99510.13;87104;1312;25600;-69
2021/12/05 11:10:51;;;;;;;51.20;26.60;;;;;;;0.00;69.53;99506.04;87062;1311;22562;-70
2021/12/05 11:13:00;;;;;;;50.50;27.20;;;;;;;-0.04;69.47;99509.16;87074;1311;22736;-78
2021/12/05 11:15:16;;;;;;;48.50;28.60;;;;;;;-0.07;69.50;99507.83;87035;1313;25609;-77
2021/12/05 11:17:24;;;;;;;51.50;27.60;;;;;;;-0.09;69.74;99508.36;86306;1313;1003532;-69
2021/12/05 11:19:41;;;;;;;51.30;29.10;;;;;;;-0.10;69.50;99510.77;87090;1312;22622;-80
2021/12/05 11:21:51;;;;;;;54.00;31.10;;;;;;;-0.11;69.60;99512.66;87060;1312;25456;-76
2021/12/05 11:24:12;;;;;;;51.60;28.60;;;;;;;-0.15;69.62;99515.95;87061;1312;22578;-75
2021/12/05 11:26:22;;;;;;;44.40;27.20;;;;;;;-0.16;69.65;99514.41;87089;1312;23821;-78
2021/12/05 11:28:32;;;;;;;43.90;24.60;;;;;;;-0.16;69.55;99518.01;87070;1312;24345;-75
2021/12/05 11:30:44;;;;;;;45.80;27.50;;;;;;;-0.16;69.71;99519.72;87116;1311;22774;-77
2021/12/05 11:32:52;;;;;;;51.30;29.20;;;;;;;-0.16;69.79;99521.25;87086;1312;22544;-78
2021/12/05 11:34:59;;;;;;;51.30;28.80;;;;;;;-0.14;69.87;99519.71;87108;1311;25468;-79
2021/12/05 11:37:05;;;;;;;50.20;27.50;;;;;;;-0.11;69.92;99519.85;87106;1312;22576;-67
2021/12/05 11:39:25;;;;;;;55.40;29.00;;;;;;;-0.10;69.67;99522.08;87096;1312;22568;-66
2021/12/05 11:41:31;;;;;;;51.60;30.30;;;;;;;-0.12;69.72;99523.65;87072;1312;24423;-79
2021/12/05 11:43:43;;;;;;;56.40;32.10;;;;;;;-0.15;69.90;99526.05;87088;1312;22611;-77
2021/12/05 11:45:58;;;;;;;57.60;31.10;;;;;;;-0.15;70.10;99525.38;87116;1312;22568;-80
2021/12/05 11:48:13;;;;;;;52.10;28.00;;;;;;;-0.14;70.00;99523.32;87075;1312;22826;-79
2021/12/05 11:50:20;;;;;;;46.70;26.90;;;;;;;-0.16;69.92;99530.52;87105;1311;22577;-81
2021/12/05 11:52:30;;;;;;;54.80;29.50;;;;;;;-0.17;69.94;99526.94;87094;1312;22562;-67
2021/12/05 11:54:37;;;;;;;48.70;25.80;;;;;;;-0.20;69.84;99527.13;87064;1312;23116;-67
2021/12/05 11:56:50;;;;;;;47.50;26.80;;;;;;;-0.20;70.16;99526.27;87099;1312;22772;-76
2021/12/05 11:59:11;;;;;;;49.80;27.20;;;;;;;-0.18;70.10;99527.98;87121;1312;22559;-73
2021/12/05 12:01:17;;;;;;;49.50;28.90;;;;;;;-0.14;70.27;99524.52;87104;1312;22692;-67
2021/12/05 12:03:34;;;;;;;51.80;29.30;;;;;;;-0.11;70.11;99524.13;87058;1312;22655;-65
2021/12/05 12:05:41;;;;;;;53.20;27.90;;;;;;;-0.09;70.11;99520.53;87086;1312;22583;-72
2021/12/05 12:07:49;;;;;;;55.50;29.60;;;;;;;-0.10;70.10;99515.39;87065;1312;22579;-67
2021/12/05 12:09:57;;;;;;;55.80;29.90;;;;;;;-0.08;70.30;99512.11;87064;1312;23179;-68
2021/12/05 12:12:09;;;;;;;53.20;30.30;;;;;;;-0.05;70.29;99509.52;87117;1312;22591;-75
2021/12/05 12:14:24;;;;;;;50.20;30.00;;;;;;;-0.05;70.43;99508.99;87087;1312;25295;-75
2021/12/05 12:16:33;;;;;;;50.80;28.40;;;;;;;-0.05;70.29;99503.02;87105;1312;25501;-72
2021/12/05 12:18:48;;;;;;;53.40;28.80;;;;;;;-0.04;70.29;99501.63;87073;1312;22555;-75
2021/12/05 12:20:57;;;;;;;59.60;31.30;;;;;;;-0.06;70.38;99500.27;87072;1312;22746;-67
2021/12/05 12:23:04;;;;;;;62.30;33.50;;;;;;;-0.07;70.31;99504.39;87080;1312;24371;-67
2021/12/05 12:25:13;;;;;;;73.30;35.40;;;;;;;-0.07;70.33;99500.77;85719;1312;1003834;-68
2021/12/05 12:27:20;;;;;;;66.10;33.60;;;;;;;-0.05;70.42;99497.34;87115;1312;24443;-76
2021/12/05 12:29:30;;;;;;;64.90;32.70;;;;;;;-0.03;70.60;99484.48;87062;1312;25484;-67
2021/12/05 12:31:41;;;;;;;72.30;32.70;;;;;;;0.02;70.59;99478.61;87102;1311;23888;-67
2021/12/05 12:33:53;;;;;;;71.00;33.20;;;;;;;0.05;70.65;99470.52;87075;1312;22578;-68
2021/12/05 12:36:06;;;;;;;63.20;32.30;;;;;;;0.07;70.73;99469.30;87065;1312;22582;-67
2021/12/05 12:38:16;;;;;;;71.00;33.80;;;;;;;0.08;70.76;99471.85;87083;1312;22557;-67
2021/12/05 12:40:34;;;;;;;83.50;38.00;;;;;;;0.08;71.05;99470.48;87105;1312;24938;-69
2021/12/05 12:42:45;;;;;;;71.90;34.70;;;;;;;0.10;71.11;99476.45;87062;1312;24708;-68
2021/12/05 12:45:13;;;;;;;59.10;31.50;;;;;;;0.12;70.78;99480.73;87059;1312;22581;-75
2021/12/05 12:47:24;;;;;;;54.80;30.60;;;;;;;0.09;70.67;99486.41;87078;1312;22555;-75
2021/12/05 12:49:35;;;;;;;;;;;;;;;0.09;71.04;99491.90;87092;1312;22883;-76
2021/12/05 12:51:43;;;;;;;51.10;27.00;;;;;;;0.05;70.68;99493.48;87085;1312;24089;-77
2021/12/05 12:53:56;;;;;;;53.50;28.20;;;;;;;0.01;70.99;99500.90;87066;1312;23835;-76
2021/12/05 12:56:10;;;;;;;44.50;24.90;;;;;;;0.03;70.92;99501.91;87124;1312;22775;-74
2021/12/05 12:58:17;;;;;;;39.40;24.40;;;;;;;0.07;71.21;99503.08;87078;1312;22566;-76
2021/12/05 13:00:26;;;;;;;47.80;24.60;;;;;;;0.08;71.32;99508.02;87066;1312;22565;-76
2021/12/05 13:02:52;;;;;;;48.40;27.20;;;;;;;0.07;71.39;99509.93;87068;1312;24317;-68
2021/12/05 13:05:34;;;;;;;45.50;26.30;;;;;;;0.11;71.62;99518.14;87077;1312;24268;-68
2021/12/05 13:10:09;;;;;;;44.60;25.30;;;;;;;0.12;71.76;99518.80;87051;1312;25298;-68
2021/12/05 13:12:18;;;;;;;44.20;26.20;;;;;;;0.11;71.85;99523.27;87094;1312;22605;-75
2021/12/05 13:14:28;;;;;;;49.10;29.00;;;;;;;0.11;71.93;99528.59;87075;1312;22818;-75
2021/12/05 13:16:39;;;;;;;53.90;30.60;;;;;;;0.12;72.13;99526.86;87122;1312;23987;-68
2021/12/05 13:18:46;;;;;;;50.10;28.30;;;;;;;0.10;72.08;99531.17;87070;1312;22875;-68
2021/12/05 13:20:57;;;;;;;43.10;25.00;;;;;;;0.05;72.03;99534.46;87105;1312;22559;-67
2021/12/05 13:23:12;;;;;;;43.30;24.70;;;;;;;0.04;72.21;99537.04;87068;1312;22562;-68
2021/12/05 13:25:22;;;;;;;44.70;26.80;;;;;;;0.03;72.28;99542.89;87079;1312;22690;-68
2021/12/05 13:27:32;;;;;;;53.40;28.20;;;;;;;0.03;72.58;99549.58;87077;1312;22581;-74
2021/12/05 13:29:42;;;;;;;49.30;28.80;;;;;;;0.02;72.38;99553.20;87087;1312;25531;-77
2021/12/05 13:31:54;;;;;;;58.60;32.30;;;;;;;0.05;72.54;99561.21;87087;1312;23818;-67
2021/12/05 13:34:32;;;;;;;59.80;31.60;;;;;;;0.04;72.60;99561.22;87105;1312;22650;-68
2021/12/05 13:36:40;;;;;;;44.60;27.00;;;;;;;0.03;72.71;99570.67;87077;1312;22550;-68
2021/12/05 13:38:47;;;;;;;42.00;24.80;;;;;;;0.03;72.99;99575.81;87087;1312;25343;-68
2021/12/05 13:40:56;;;;;;;43.60;26.20;;;;;;;-0.02;72.93;99584.08;87092;1312;23869;-69
2021/12/05 13:43:06;;;;;;;45.50;26.90;;;;;;;-0.07;72.77;99588.23;87055;1312;24307;-68
2021/12/05 13:45:42;;;;;;;41.30;26.80;;;;;;;-0.08;73.36;99590.30;87083;1312;22582;-68
2021/12/05 13:48:04;;;;;;;46.30;26.30;;;;;;;-0.12;73.13;99590.48;87054;1312;22674;-71
2021/12/05 13:50:32;;;;;;;42.10;26.20;;;;;;;-0.09;73.51;99588.41;87111;1312;22919;-77